sensor_id;sensor_type;location;lat;lon;timestamp;P1;durP1;ratioP1;P2;durP2;ratioP2
71490;SDS011;59307;50.060;9.150;2023-04-25T00:01:53;13.68;;;7.57;;
71490;SDS011;59307;50.060;9.150;2023-04-25T00:04:18;12.63;;;6.87;;
71490;SDS011;59307;50.060;9.150;2023-04-25T00:06:43;13.07;;;6.20;;
71490;SDS011;59307;50.060;9.150;2023-04-25T00:09:08;12.73;;;6.77;;
71490;SDS011;59307;50.060;9.150;2023-04-25T00:11:35;10.98;;;6.55;;
71490;SDS011;59307;50.060;9.150;2023-04-25T00:14:00;11.73;;;5.50;;
71490;SDS011;59307;50.060;9.150;2023-04-25T00:16:28;12.98;;;5.70;;
71490;SDS011;59307;50.060;9.150;2023-04-25T00:18:54;10.50;;;5.30;;
71490;SDS011;59307;50.060;9.150;2023-04-25T00:21:20;9.80;;;5.40;;
71490;SDS011;59307;50.060;9.150;2023-04-25T00:23:45;11.10;;;5.33;;
71490;SDS011;59307;50.060;9.150;2023-04-25T00:26:11;9.90;;;5.03;;
71490;SDS011;59307;50.060;9.150;2023-04-25T00:28:36;8.77;;;4.70;;
71490;SDS011;59307;50.060;9.150;2023-04-25T00:31:02;11.10;;;5.18;;
71490;SDS011;59307;50.060;9.150;2023-04-25T00:33:27;11.30;;;5.70;;
71490;SDS011;59307;50.060;9.150;2023-04-25T00:35:52;9.17;;;4.93;;
71490;SDS011;59307;50.060;9.150;2023-04-25T00:38:18;11.07;;;5.60;;
71490;SDS011;59307;50.060;9.150;2023-04-25T00:40:43;10.20;;;5.53;;
71490;SDS011;59307;50.060;9.150;2023-04-25T00:43:08;12.60;;;6.17;;
71490;SDS011;59307;50.060;9.150;2023-04-25T00:45:33;8.60;;;5.10;;
71490;SDS011;59307;50.060;9.150;2023-04-25T00:48:02;11.98;;;5.90;;
71490;SDS011;59307;50.060;9.150;2023-04-25T00:50:29;10.13;;;5.70;;
71490;SDS011;59307;50.060;9.150;2023-04-25T00:52:54;10.17;;;5.83;;
71490;SDS011;59307;50.060;9.150;2023-04-25T00:55:20;11.43;;;5.87;;
71490;SDS011;59307;50.060;9.150;2023-04-25T00:57:45;12.63;;;6.30;;
71490;SDS011;59307;50.060;9.150;2023-04-25T01:00:11;9.88;;;5.75;;
71490;SDS011;59307;50.060;9.150;2023-04-25T01:02:38;10.60;;;5.00;;
71490;SDS011;59307;50.060;9.150;2023-04-25T01:05:04;12.05;;;5.80;;
71490;SDS011;59307;50.060;9.150;2023-04-25T01:07:29;10.10;;;5.63;;
71490;SDS011;59307;50.060;9.150;2023-04-25T01:09:55;9.47;;;5.20;;
71490;SDS011;59307;50.060;9.150;2023-04-25T01:12:20;8.87;;;4.80;;
71490;SDS011;59307;50.060;9.150;2023-04-25T01:14:46;8.37;;;4.57;;
71490;SDS011;59307;50.060;9.150;2023-04-25T01:17:11;9.00;;;4.57;;
71490;SDS011;59307;50.060;9.150;2023-04-25T01:19:36;8.75;;;4.80;;
71490;SDS011;59307;50.060;9.150;2023-04-25T01:22:02;9.37;;;4.40;;
71490;SDS011;59307;50.060;9.150;2023-04-25T01:24:28;7.75;;;4.65;;
71490;SDS011;59307;50.060;9.150;2023-04-25T01:26:54;7.90;;;4.97;;
71490;SDS011;59307;50.060;9.150;2023-04-25T01:29:21;8.98;;;4.80;;
71490;SDS011;59307;50.060;9.150;2023-04-25T01:31:46;9.87;;;5.13;;
71490;SDS011;59307;50.060;9.150;2023-04-25T01:34:12;9.17;;;4.80;;
71490;SDS011;59307;50.060;9.150;2023-04-25T01:36:37;10.37;;;6.20;;
71490;SDS011;59307;50.060;9.150;2023-04-25T01:39:02;10.50;;;5.43;;
71490;SDS011;59307;50.060;9.150;2023-04-25T01:41:28;9.90;;;5.30;;
71490;SDS011;59307;50.060;9.150;2023-04-25T01:43:53;9.60;;;5.40;;
71490;SDS011;59307;50.060;9.150;2023-04-25T01:46:18;10.47;;;6.07;;
71490;SDS011;59307;50.060;9.150;2023-04-25T01:48:44;10.83;;;5.80;;
71490;SDS011;59307;50.060;9.150;2023-04-25T01:51:09;12.13;;;6.07;;
71490;SDS011;59307;50.060;9.150;2023-04-25T01:53:36;11.82;;;5.97;;
71490;SDS011;59307;50.060;9.150;2023-04-25T01:56:01;10.20;;;5.97;;
71490;SDS011;59307;50.060;9.150;2023-04-25T01:58:26;12.33;;;5.73;;
71490;SDS011;59307;50.060;9.150;2023-04-25T02:00:52;10.87;;;6.67;;
71490;SDS011;59307;50.060;9.150;2023-04-25T02:03:17;10.27;;;6.03;;
71490;SDS011;59307;50.060;9.150;2023-04-25T02:05:42;11.37;;;5.97;;
71490;SDS011;59307;50.060;9.150;2023-04-25T02:08:08;13.10;;;6.93;;
71490;SDS011;59307;50.060;9.150;2023-04-25T02:10:34;12.00;;;6.47;;
71490;SDS011;59307;50.060;9.150;2023-04-25T02:12:59;13.27;;;6.97;;
71490;SDS011;59307;50.060;9.150;2023-04-25T02:15:24;11.43;;;7.07;;
71490;SDS011;59307;50.060;9.150;2023-04-25T02:17:49;13.77;;;7.20;;
71490;SDS011;59307;50.060;9.150;2023-04-25T02:20:15;11.77;;;7.07;;
71490;SDS011;59307;50.060;9.150;2023-04-25T02:22:41;12.68;;;7.18;;
71490;SDS011;59307;50.060;9.150;2023-04-25T02:25:06;17.25;;;7.70;;
71490;SDS011;59307;50.060;9.150;2023-04-25T02:27:32;13.67;;;7.87;;
71490;SDS011;59307;50.060;9.150;2023-04-25T02:29:57;16.57;;;7.67;;
71490;SDS011;59307;50.060;9.150;2023-04-25T02:32:22;14.63;;;8.17;;
71490;SDS011;59307;50.060;9.150;2023-04-25T02:34:48;15.33;;;8.53;;
71490;SDS011;59307;50.060;9.150;2023-04-25T02:37:13;15.50;;;8.50;;
71490;SDS011;59307;50.060;9.150;2023-04-25T02:39:38;15.00;;;8.73;;
71490;SDS011;59307;50.060;9.150;2023-04-25T02:42:03;16.90;;;9.13;;
71490;SDS011;59307;50.060;9.150;2023-04-25T02:44:29;14.90;;;8.47;;
71490;SDS011;59307;50.060;9.150;2023-04-25T02:46:54;13.73;;;8.30;;
71490;SDS011;59307;50.060;9.150;2023-04-25T02:49:19;15.97;;;8.57;;
71490;SDS011;59307;50.060;9.150;2023-04-25T02:51:44;15.87;;;8.17;;
71490;SDS011;59307;50.060;9.150;2023-04-25T02:54:10;14.73;;;8.53;;
71490;SDS011;59307;50.060;9.150;2023-04-25T02:56:35;17.03;;;8.63;;
71490;SDS011;59307;50.060;9.150;2023-04-25T02:59:00;16.57;;;8.50;;
71490;SDS011;59307;50.060;9.150;2023-04-25T03:01:25;14.77;;;7.93;;
71490;SDS011;59307;50.060;9.150;2023-04-25T03:03:51;14.73;;;8.97;;
71490;SDS011;59307;50.060;9.150;2023-04-25T03:06:16;16.10;;;8.63;;
71490;SDS011;59307;50.060;9.150;2023-04-25T03:08:41;13.60;;;8.03;;
71490;SDS011;59307;50.060;9.150;2023-04-25T03:11:06;25.00;;;9.63;;
71490;SDS011;59307;50.060;9.150;2023-04-25T03:13:31;13.73;;;8.30;;
71490;SDS011;59307;50.060;9.150;2023-04-25T03:15:56;16.33;;;8.27;;
71490;SDS011;59307;50.060;9.150;2023-04-25T03:18:22;14.30;;;8.37;;
71490;SDS011;59307;50.060;9.150;2023-04-25T03:20:47;13.97;;;7.13;;
71490;SDS011;59307;50.060;9.150;2023-04-25T03:23:12;11.00;;;6.00;;
71490;SDS011;59307;50.060;9.150;2023-04-25T03:25:37;10.87;;;6.57;;
71490;SDS011;59307;50.060;9.150;2023-04-25T03:28:02;13.43;;;6.60;;
71490;SDS011;59307;50.060;9.150;2023-04-25T03:30:28;14.63;;;6.90;;
71490;SDS011;59307;50.060;9.150;2023-04-25T03:32:53;13.10;;;7.10;;
71490;SDS011;59307;50.060;9.150;2023-04-25T03:35:18;16.13;;;7.00;;
71490;SDS011;59307;50.060;9.150;2023-04-25T03:37:43;11.90;;;6.70;;
71490;SDS011;59307;50.060;9.150;2023-04-25T03:40:10;14.80;;;6.60;;
71490;SDS011;59307;50.060;9.150;2023-04-25T03:42:35;12.50;;;6.47;;
71490;SDS011;59307;50.060;9.150;2023-04-25T03:45:00;15.00;;;7.15;;
71490;SDS011;59307;50.060;9.150;2023-04-25T03:47:26;16.50;;;6.97;;
71490;SDS011;59307;50.060;9.150;2023-04-25T03:49:51;14.53;;;7.87;;
71490;SDS011;59307;50.060;9.150;2023-04-25T03:52:16;18.90;;;7.90;;
71490;SDS011;59307;50.060;9.150;2023-04-25T03:54:42;16.40;;;8.10;;
71490;SDS011;59307;50.060;9.150;2023-04-25T03:57:07;15.03;;;8.30;;
71490;SDS011;59307;50.060;9.150;2023-04-25T03:59:32;14.27;;;7.40;;
71490;SDS011;59307;50.060;9.150;2023-04-25T04:01:57;16.53;;;8.00;;
71490;SDS011;59307;50.060;9.150;2023-04-25T04:04:22;13.47;;;7.63;;
71490;SDS011;59307;50.060;9.150;2023-04-25T04:06:48;14.67;;;7.90;;
71490;SDS011;59307;50.060;9.150;2023-04-25T04:09:13;19.37;;;7.90;;
71490;SDS011;59307;50.060;9.150;2023-04-25T04:11:38;15.90;;;7.43;;
71490;SDS011;59307;50.060;9.150;2023-04-25T04:14:07;17.60;;;7.97;;
71490;SDS011;59307;50.060;9.150;2023-04-25T04:16:32;19.27;;;8.33;;
71490;SDS011;59307;50.060;9.150;2023-04-25T04:18:58;15.80;;;8.27;;
71490;SDS011;59307;50.060;9.150;2023-04-25T04:21:23;19.87;;;8.70;;
71490;SDS011;59307;50.060;9.150;2023-04-25T04:23:48;16.47;;;7.90;;
71490;SDS011;59307;50.060;9.150;2023-04-25T04:26:13;18.50;;;9.60;;
71490;SDS011;59307;50.060;9.150;2023-04-25T04:28:41;15.50;;;8.45;;
71490;SDS011;59307;50.060;9.150;2023-04-25T04:31:06;18.33;;;9.47;;
71490;SDS011;59307;50.060;9.150;2023-04-25T04:33:32;17.75;;;9.25;;
71490;SDS011;59307;50.060;9.150;2023-04-25T04:35:57;19.23;;;9.37;;
71490;SDS011;59307;50.060;9.150;2023-04-25T04:38:22;18.30;;;9.17;;
71490;SDS011;59307;50.060;9.150;2023-04-25T04:40:48;16.63;;;9.17;;
71490;SDS011;59307;50.060;9.150;2023-04-25T04:43:13;17.93;;;9.70;;
71490;SDS011;59307;50.060;9.150;2023-04-25T04:45:39;18.23;;;8.45;;
71490;SDS011;59307;50.060;9.150;2023-04-25T04:48:05;18.10;;;8.80;;
71490;SDS011;59307;50.060;9.150;2023-04-25T04:50:31;16.88;;;8.77;;
71490;SDS011;59307;50.060;9.150;2023-04-25T04:52:57;17.30;;;7.38;;
71490;SDS011;59307;50.060;9.150;2023-04-25T04:55:22;16.63;;;7.97;;
71490;SDS011;59307;50.060;9.150;2023-04-25T04:57:47;17.17;;;7.13;;
71490;SDS011;59307;50.060;9.150;2023-04-25T05:00:13;15.23;;;7.70;;
71490;SDS011;59307;50.060;9.150;2023-04-25T05:02:38;13.80;;;6.67;;
71490;SDS011;59307;50.060;9.150;2023-04-25T05:05:04;16.93;;;7.40;;
71490;SDS011;59307;50.060;9.150;2023-04-25T05:07:29;16.65;;;7.40;;
71490;SDS011;59307;50.060;9.150;2023-04-25T05:09:55;19.87;;;7.23;;
71490;SDS011;59307;50.060;9.150;2023-04-25T05:12:20;15.43;;;7.13;;
71490;SDS011;59307;50.060;9.150;2023-04-25T05:14:45;20.80;;;7.90;;
71490;SDS011;59307;50.060;9.150;2023-04-25T05:17:10;18.60;;;7.93;;
71490;SDS011;59307;50.060;9.150;2023-04-25T05:19:35;16.60;;;7.97;;
71490;SDS011;59307;50.060;9.150;2023-04-25T05:22:01;17.67;;;7.63;;
71490;SDS011;59307;50.060;9.150;2023-04-25T05:24:26;18.15;;;7.78;;
71490;SDS011;59307;50.060;9.150;2023-04-25T05:26:52;18.40;;;7.67;;
71490;SDS011;59307;50.060;9.150;2023-04-25T05:29:17;16.73;;;7.33;;
71490;SDS011;59307;50.060;9.150;2023-04-25T05:31:42;20.47;;;7.30;;
71490;SDS011;59307;50.060;9.150;2023-04-25T05:34:07;15.50;;;6.63;;
71490;SDS011;59307;50.060;9.150;2023-04-25T05:36:32;12.90;;;6.10;;
71490;SDS011;59307;50.060;9.150;2023-04-25T05:38:58;15.37;;;5.97;;
71490;SDS011;59307;50.060;9.150;2023-04-25T05:41:23;15.37;;;6.10;;
71490;SDS011;59307;50.060;9.150;2023-04-25T05:43:48;14.47;;;5.77;;
71490;SDS011;59307;50.060;9.150;2023-04-25T05:46:14;11.23;;;5.60;;
71490;SDS011;59307;50.060;9.150;2023-04-25T05:48:40;13.27;;;5.43;;
71490;SDS011;59307;50.060;9.150;2023-04-25T05:51:05;12.00;;;4.70;;
71490;SDS011;59307;50.060;9.150;2023-04-25T05:53:30;13.83;;;5.00;;
71490;SDS011;59307;50.060;9.150;2023-04-25T05:55:56;10.32;;;5.05;;
71490;SDS011;59307;50.060;9.150;2023-04-25T05:58:21;13.93;;;4.40;;
71490;SDS011;59307;50.060;9.150;2023-04-25T06:00:46;10.00;;;4.60;;
71490;SDS011;59307;50.060;9.150;2023-04-25T06:03:12;14.17;;;4.20;;
71490;SDS011;59307;50.060;9.150;2023-04-25T06:05:39;9.63;;;3.85;;
71490;SDS011;59307;50.060;9.150;2023-04-25T06:08:04;9.57;;;3.97;;
71490;SDS011;59307;50.060;9.150;2023-04-25T06:10:30;10.00;;;3.77;;
71490;SDS011;59307;50.060;9.150;2023-04-25T06:12:55;11.03;;;3.53;;
71490;SDS011;59307;50.060;9.150;2023-04-25T06:15:20;13.10;;;3.60;;
71490;SDS011;59307;50.060;9.150;2023-04-25T06:17:45;6.80;;;3.57;;
71490;SDS011;59307;50.060;9.150;2023-04-25T06:20:10;11.60;;;3.30;;
71490;SDS011;59307;50.060;9.150;2023-04-25T06:22:36;8.37;;;3.30;;
71490;SDS011;59307;50.060;9.150;2023-04-25T06:25:01;8.37;;;3.47;;
71490;SDS011;59307;50.060;9.150;2023-04-25T06:27:28;8.60;;;3.53;;
71490;SDS011;59307;50.060;9.150;2023-04-25T06:29:54;8.87;;;3.43;;
71490;SDS011;59307;50.060;9.150;2023-04-25T06:32:19;8.80;;;3.70;;
71490;SDS011;59307;50.060;9.150;2023-04-25T06:34:44;8.43;;;3.43;;
71490;SDS011;59307;50.060;9.150;2023-04-25T06:37:10;7.32;;;3.30;;
71490;SDS011;59307;50.060;9.150;2023-04-25T06:39:35;7.80;;;3.50;;
71490;SDS011;59307;50.060;9.150;2023-04-25T06:42:00;10.83;;;3.63;;
71490;SDS011;59307;50.060;9.150;2023-04-25T06:44:26;11.40;;;3.73;;
71490;SDS011;59307;50.060;9.150;2023-04-25T06:46:51;7.67;;;3.40;;
71490;SDS011;59307;50.060;9.150;2023-04-25T06:49:16;8.37;;;3.20;;
71490;SDS011;59307;50.060;9.150;2023-04-25T06:51:41;8.53;;;3.67;;
71490;SDS011;59307;50.060;9.150;2023-04-25T06:54:06;8.63;;;3.50;;
71490;SDS011;59307;50.060;9.150;2023-04-25T06:56:31;9.20;;;3.90;;
71490;SDS011;59307;50.060;9.150;2023-04-25T06:58:57;7.90;;;3.60;;
71490;SDS011;59307;50.060;9.150;2023-04-25T07:01:22;9.40;;;3.13;;
71490;SDS011;59307;50.060;9.150;2023-04-25T07:03:47;9.20;;;3.17;;
71490;SDS011;59307;50.060;9.150;2023-04-25T07:06:12;8.17;;;3.13;;
71490;SDS011;59307;50.060;9.150;2023-04-25T07:08:37;10.53;;;3.00;;
71490;SDS011;59307;50.060;9.150;2023-04-25T07:11:03;8.83;;;3.17;;
71490;SDS011;59307;50.060;9.150;2023-04-25T07:13:28;5.17;;;2.97;;
71490;SDS011;59307;50.060;9.150;2023-04-25T07:15:53;9.37;;;3.50;;
71490;SDS011;59307;50.060;9.150;2023-04-25T07:18:18;8.30;;;3.70;;
71490;SDS011;59307;50.060;9.150;2023-04-25T07:20:43;11.43;;;3.93;;
71490;SDS011;59307;50.060;9.150;2023-04-25T07:23:09;8.13;;;3.70;;
71490;SDS011;59307;50.060;9.150;2023-04-25T07:25:34;6.03;;;3.20;;
71490;SDS011;59307;50.060;9.150;2023-04-25T07:28:00;11.95;;;3.58;;
71490;SDS011;59307;50.060;9.150;2023-04-25T07:30:25;9.20;;;3.80;;
71490;SDS011;59307;50.060;9.150;2023-04-25T07:32:50;9.27;;;3.83;;
71490;SDS011;59307;50.060;9.150;2023-04-25T07:35:16;11.47;;;3.63;;
71490;SDS011;59307;50.060;9.150;2023-04-25T07:37:41;8.37;;;3.07;;
71490;SDS011;59307;50.060;9.150;2023-04-25T07:40:06;8.63;;;3.43;;
71490;SDS011;59307;50.060;9.150;2023-04-25T07:42:32;7.75;;;3.75;;
71490;SDS011;59307;50.060;9.150;2023-04-25T07:44:58;7.57;;;3.47;;
71490;SDS011;59307;50.060;9.150;2023-04-25T07:47:23;7.67;;;3.40;;
71490;SDS011;59307;50.060;9.150;2023-04-25T07:49:48;8.40;;;3.23;;
71490;SDS011;59307;50.060;9.150;2023-04-25T07:52:14;11.83;;;3.73;;
71490;SDS011;59307;50.060;9.150;2023-04-25T07:54:39;7.83;;;3.70;;
71490;SDS011;59307;50.060;9.150;2023-04-25T07:57:04;7.90;;;3.30;;
71490;SDS011;59307;50.060;9.150;2023-04-25T07:59:31;7.78;;;3.55;;
71490;SDS011;59307;50.060;9.150;2023-04-25T08:01:56;9.02;;;3.40;;
71490;SDS011;59307;50.060;9.150;2023-04-25T08:04:22;8.73;;;3.50;;
71490;SDS011;59307;50.060;9.150;2023-04-25T08:06:47;7.53;;;3.30;;
71490;SDS011;59307;50.060;9.150;2023-04-25T08:09:13;10.10;;;3.87;;
71490;SDS011;59307;50.060;9.150;2023-04-25T08:11:38;7.87;;;3.53;;
71490;SDS011;59307;50.060;9.150;2023-04-25T08:14:05;7.10;;;3.40;;
71490;SDS011;59307;50.060;9.150;2023-04-25T08:16:30;9.38;;;3.33;;
71490;SDS011;59307;50.060;9.150;2023-04-25T08:18:55;9.70;;;4.00;;
71490;SDS011;59307;50.060;9.150;2023-04-25T08:21:21;9.47;;;3.47;;
71490;SDS011;59307;50.060;9.150;2023-04-25T08:23:46;7.63;;;3.13;;
71490;SDS011;59307;50.060;9.150;2023-04-25T08:26:11;7.23;;;3.00;;
71490;SDS011;59307;50.060;9.150;2023-04-25T08:28:36;8.07;;;3.30;;
71490;SDS011;59307;50.060;9.150;2023-04-25T08:31:02;8.57;;;3.23;;
71490;SDS011;59307;50.060;9.150;2023-04-25T08:33:27;7.80;;;3.60;;
71490;SDS011;59307;50.060;9.150;2023-04-25T08:35:52;8.40;;;3.30;;
71490;SDS011;59307;50.060;9.150;2023-04-25T08:38:17;8.33;;;3.50;;
71490;SDS011;59307;50.060;9.150;2023-04-25T08:40:43;11.03;;;3.27;;
71490;SDS011;59307;50.060;9.150;2023-04-25T08:43:08;7.93;;;2.97;;
71490;SDS011;59307;50.060;9.150;2023-04-25T08:45:40;8.18;;;2.88;;
71490;SDS011;59307;50.060;9.150;2023-04-25T08:48:07;8.67;;;2.90;;
71490;SDS011;59307;50.060;9.150;2023-04-25T08:50:34;7.00;;;3.10;;
71490;SDS011;59307;50.060;9.150;2023-04-25T08:52:59;8.70;;;3.10;;
71490;SDS011;59307;50.060;9.150;2023-04-25T08:55:29;7.90;;;2.80;;
71490;SDS011;59307;50.060;9.150;2023-04-25T08:57:55;6.82;;;3.05;;
71490;SDS011;59307;50.060;9.150;2023-04-25T09:00:21;6.68;;;2.63;;
71490;SDS011;59307;50.060;9.150;2023-04-25T09:02:46;5.47;;;2.85;;
71490;SDS011;59307;50.060;9.150;2023-04-25T09:05:12;4.80;;;2.40;;
71490;SDS011;59307;50.060;9.150;2023-04-25T09:07:37;5.00;;;2.70;;
71490;SDS011;59307;50.060;9.150;2023-04-25T09:10:03;4.97;;;2.37;;
71490;SDS011;59307;50.060;9.150;2023-04-25T09:12:28;6.20;;;2.63;;
71490;SDS011;59307;50.060;9.150;2023-04-25T09:15:08;7.43;;;2.75;;
71490;SDS011;59307;50.060;9.150;2023-04-25T09:17:34;5.53;;;2.40;;
71490;SDS011;59307;50.060;9.150;2023-04-25T09:20:10;7.03;;;2.80;;
71490;SDS011;59307;50.060;9.150;2023-04-25T09:22:36;5.95;;;2.60;;
71490;SDS011;59307;50.060;9.150;2023-04-25T09:25:10;6.57;;;2.83;;
71490;SDS011;59307;50.060;9.150;2023-04-25T09:27:36;8.07;;;2.53;;
71490;SDS011;59307;50.060;9.150;2023-04-25T09:30:02;5.27;;;2.57;;
71490;SDS011;59307;50.060;9.150;2023-04-25T09:32:27;5.97;;;2.78;;
71490;SDS011;59307;50.060;9.150;2023-04-25T09:34:53;6.43;;;3.10;;
71490;SDS011;59307;50.060;9.150;2023-04-25T09:39:45;6.05;;;2.90;;
71490;SDS011;59307;50.060;9.150;2023-04-25T09:42:12;10.80;;;3.30;;
71490;SDS011;59307;50.060;9.150;2023-04-25T09:44:41;6.23;;;2.90;;
71490;SDS011;59307;50.060;9.150;2023-04-25T09:47:09;6.00;;;3.03;;
71490;SDS011;59307;50.060;9.150;2023-04-25T09:49:34;6.93;;;3.28;;
71490;SDS011;59307;50.060;9.150;2023-04-25T09:52:03;8.15;;;3.13;;
71490;SDS011;59307;50.060;9.150;2023-04-25T09:54:28;8.73;;;3.30;;
71490;SDS011;59307;50.060;9.150;2023-04-25T09:56:53;8.27;;;3.57;;
71490;SDS011;59307;50.060;9.150;2023-04-25T09:59:22;8.77;;;3.60;;
71490;SDS011;59307;50.060;9.150;2023-04-25T10:01:47;6.75;;;3.40;;
71490;SDS011;59307;50.060;9.150;2023-04-25T10:04:13;6.93;;;3.30;;
71490;SDS011;59307;50.060;9.150;2023-04-25T10:06:41;9.48;;;3.25;;
71490;SDS011;59307;50.060;9.150;2023-04-25T10:09:07;6.65;;;3.35;;
71490;SDS011;59307;50.060;9.150;2023-04-25T10:11:33;6.40;;;3.60;;
71490;SDS011;59307;50.060;9.150;2023-04-25T10:13:59;8.00;;;3.57;;
71490;SDS011;59307;50.060;9.150;2023-04-25T10:16:25;6.65;;;3.60;;
71490;SDS011;59307;50.060;9.150;2023-04-25T10:18:50;8.03;;;3.50;;
71490;SDS011;59307;50.060;9.150;2023-04-25T10:21:15;9.37;;;3.70;;
71490;SDS011;59307;50.060;9.150;2023-04-25T10:23:41;7.35;;;3.35;;
71490;SDS011;59307;50.060;9.150;2023-04-25T10:26:07;8.10;;;3.30;;
71490;SDS011;59307;50.060;9.150;2023-04-25T10:31:32;9.93;;;3.83;;
71490;SDS011;59307;50.060;9.150;2023-04-25T10:33:57;7.90;;;3.30;;
71490;SDS011;59307;50.060;9.150;2023-04-25T10:36:23;10.07;;;4.30;;
71490;SDS011;59307;50.060;9.150;2023-04-25T10:38:49;8.35;;;4.00;;
71490;SDS011;59307;50.060;9.150;2023-04-25T10:41:18;7.45;;;3.47;;
71490;SDS011;59307;50.060;9.150;2023-04-25T10:43:44;6.73;;;3.20;;
71490;SDS011;59307;50.060;9.150;2023-04-25T10:46:13;8.45;;;3.38;;
71490;SDS011;59307;50.060;9.150;2023-04-25T10:48:43;7.00;;;3.28;;
71490;SDS011;59307;50.060;9.150;2023-04-25T10:51:10;6.75;;;3.65;;
71490;SDS011;59307;50.060;9.150;2023-04-25T10:53:36;8.67;;;3.97;;
71490;SDS011;59307;50.060;9.150;2023-04-25T10:56:11;6.40;;;3.50;;
71490;SDS011;59307;50.060;9.150;2023-04-25T10:58:41;10.40;;;4.60;;
71490;SDS011;59307;50.060;9.150;2023-04-25T11:01:06;8.05;;;3.70;;
71490;SDS011;59307;50.060;9.150;2023-04-25T11:03:31;7.27;;;3.47;;
71490;SDS011;59307;50.060;9.150;2023-04-25T11:05:57;13.33;;;4.53;;
71490;SDS011;59307;50.060;9.150;2023-04-25T11:08:28;10.55;;;4.10;;
71490;SDS011;59307;50.060;9.150;2023-04-25T11:10:58;9.98;;;3.92;;
71490;SDS011;59307;50.060;9.150;2023-04-25T11:13:28;8.40;;;4.27;;
71490;SDS011;59307;50.060;9.150;2023-04-25T11:15:53;7.50;;;3.78;;
71490;SDS011;59307;50.060;9.150;2023-04-25T11:18:19;10.23;;;3.90;;
71490;SDS011;59307;50.060;9.150;2023-04-25T11:20:44;10.23;;;4.60;;
71490;SDS011;59307;50.060;9.150;2023-04-25T11:23:09;7.30;;;4.20;;
71490;SDS011;59307;50.060;9.150;2023-04-25T11:25:35;9.45;;;4.43;;
71490;SDS011;59307;50.060;9.150;2023-04-25T11:28:01;8.87;;;4.20;;
71490;SDS011;59307;50.060;9.150;2023-04-25T11:30:26;7.33;;;3.67;;
71490;SDS011;59307;50.060;9.150;2023-04-25T11:32:51;8.93;;;3.58;;
71490;SDS011;59307;50.060;9.150;2023-04-25T11:35:17;8.43;;;3.57;;
71490;SDS011;59307;50.060;9.150;2023-04-25T11:37:43;7.93;;;3.70;;
71490;SDS011;59307;50.060;9.150;2023-04-25T11:40:08;9.23;;;3.47;;
71490;SDS011;59307;50.060;9.150;2023-04-25T11:42:36;9.07;;;3.20;;
71490;SDS011;59307;50.060;9.150;2023-04-25T11:45:01;8.60;;;3.10;;
71490;SDS011;59307;50.060;9.150;2023-04-25T11:47:29;7.18;;;3.10;;
71490;SDS011;59307;50.060;9.150;2023-04-25T11:49:55;6.97;;;2.90;;
71490;SDS011;59307;50.060;9.150;2023-04-25T11:52:20;7.43;;;3.07;;
71490;SDS011;59307;50.060;9.150;2023-04-25T11:54:45;5.33;;;2.43;;
71490;SDS011;59307;50.060;9.150;2023-04-25T11:57:11;7.80;;;3.07;;
71490;SDS011;59307;50.060;9.150;2023-04-25T11:59:36;4.97;;;2.58;;
71490;SDS011;59307;50.060;9.150;2023-04-25T12:02:01;8.60;;;2.93;;
71490;SDS011;59307;50.060;9.150;2023-04-25T12:04:29;8.37;;;2.83;;
71490;SDS011;59307;50.060;9.150;2023-04-25T12:06:55;7.03;;;2.90;;
71490;SDS011;59307;50.060;9.150;2023-04-25T12:09:21;4.68;;;2.42;;
71490;SDS011;59307;50.060;9.150;2023-04-25T12:11:53;6.87;;;2.87;;
71490;SDS011;59307;50.060;9.150;2023-04-25T12:14:22;5.97;;;2.70;;
71490;SDS011;59307;50.060;9.150;2023-04-25T12:16:49;5.80;;;2.70;;
71490;SDS011;59307;50.060;9.150;2023-04-25T12:19:16;4.63;;;2.58;;
71490;SDS011;59307;50.060;9.150;2023-04-25T12:21:42;6.60;;;2.50;;
71490;SDS011;59307;50.060;9.150;2023-04-25T12:26:52;4.22;;;2.30;;
71490;SDS011;59307;50.060;9.150;2023-04-25T12:29:18;6.43;;;2.40;;
71490;SDS011;59307;50.060;9.150;2023-04-25T12:31:44;6.18;;;2.33;;
71490;SDS011;59307;50.060;9.150;2023-04-25T12:34:10;5.65;;;2.28;;
71490;SDS011;59307;50.060;9.150;2023-04-25T12:36:35;6.73;;;2.50;;
71490;SDS011;59307;50.060;9.150;2023-04-25T12:39:00;5.83;;;2.20;;
71490;SDS011;59307;50.060;9.150;2023-04-25T12:41:29;5.22;;;2.42;;
71490;SDS011;59307;50.060;9.150;2023-04-25T12:43:54;5.80;;;2.47;;
71490;SDS011;59307;50.060;9.150;2023-04-25T12:46:19;7.13;;;2.57;;
71490;SDS011;59307;50.060;9.150;2023-04-25T12:48:45;7.73;;;2.70;;
71490;SDS011;59307;50.060;9.150;2023-04-25T12:51:10;9.67;;;2.40;;
71490;SDS011;59307;50.060;9.150;2023-04-25T12:53:35;8.07;;;2.53;;
71490;SDS011;59307;50.060;9.150;2023-04-25T12:56:02;6.38;;;2.60;;
71490;SDS011;59307;50.060;9.150;2023-04-25T12:58:27;9.13;;;2.90;;
71490;SDS011;59307;50.060;9.150;2023-04-25T13:00:52;6.53;;;2.47;;
71490;SDS011;59307;50.060;9.150;2023-04-25T13:03:18;9.23;;;2.23;;
71490;SDS011;59307;50.060;9.150;2023-04-25T13:05:43;7.15;;;2.22;;
71490;SDS011;59307;50.060;9.150;2023-04-25T13:08:08;6.03;;;2.27;;
71490;SDS011;59307;50.060;9.150;2023-04-25T13:10:34;6.90;;;2.17;;
71490;SDS011;59307;50.060;9.150;2023-04-25T13:13:00;6.63;;;2.50;;
71490;SDS011;59307;50.060;9.150;2023-04-25T13:15:26;5.37;;;2.40;;
71490;SDS011;59307;50.060;9.150;2023-04-25T13:17:51;8.10;;;2.50;;
71490;SDS011;59307;50.060;9.150;2023-04-25T13:20:16;6.97;;;2.33;;
71490;SDS011;59307;50.060;9.150;2023-04-25T13:22:43;6.07;;;2.25;;
71490;SDS011;59307;50.060;9.150;2023-04-25T13:25:10;7.03;;;2.92;;
71490;SDS011;59307;50.060;9.150;2023-04-25T13:27:36;7.67;;;2.70;;
71490;SDS011;59307;50.060;9.150;2023-04-25T13:30:01;9.07;;;2.67;;
71490;SDS011;59307;50.060;9.150;2023-04-25T13:32:31;7.82;;;2.33;;
71490;SDS011;59307;50.060;9.150;2023-04-25T13:34:57;5.70;;;2.33;;
71490;SDS011;59307;50.060;9.150;2023-04-25T13:37:22;7.53;;;2.37;;
71490;SDS011;59307;50.060;9.150;2023-04-25T13:39:49;7.50;;;2.25;;
71490;SDS011;59307;50.060;9.150;2023-04-25T13:42:14;9.70;;;2.50;;
71490;SDS011;59307;50.060;9.150;2023-04-25T13:44:40;9.63;;;2.70;;
71490;SDS011;59307;50.060;9.150;2023-04-25T13:47:06;5.60;;;2.70;;
71490;SDS011;59307;50.060;9.150;2023-04-25T13:49:31;7.40;;;2.30;;
71490;SDS011;59307;50.060;9.150;2023-04-25T13:51:56;9.33;;;2.60;;
71490;SDS011;59307;50.060;9.150;2023-04-25T13:54:21;7.37;;;2.33;;
71490;SDS011;59307;50.060;9.150;2023-04-25T13:56:47;8.55;;;2.50;;
71490;SDS011;59307;50.060;9.150;2023-04-25T13:59:13;7.10;;;2.80;;
71490;SDS011;59307;50.060;9.150;2023-04-25T14:01:38;6.17;;;2.43;;
71490;SDS011;59307;50.060;9.150;2023-04-25T14:04:04;6.23;;;2.37;;
71490;SDS011;59307;50.060;9.150;2023-04-25T14:06:31;6.27;;;2.30;;
71490;SDS011;59307;50.060;9.150;2023-04-25T14:08:56;5.45;;;2.33;;
71490;SDS011;59307;50.060;9.150;2023-04-25T14:11:21;6.77;;;2.20;;
71490;SDS011;59307;50.060;9.150;2023-04-25T14:13:46;7.43;;;2.33;;
71490;SDS011;59307;50.060;9.150;2023-04-25T14:16:12;7.50;;;2.60;;
71490;SDS011;59307;50.060;9.150;2023-04-25T14:18:38;6.57;;;2.30;;
71490;SDS011;59307;50.060;9.150;2023-04-25T14:21:03;6.60;;;2.30;;
71490;SDS011;59307;50.060;9.150;2023-04-25T14:23:29;6.88;;;2.63;;
71490;SDS011;59307;50.060;9.150;2023-04-25T14:25:55;8.33;;;3.07;;
71490;SDS011;59307;50.060;9.150;2023-04-25T14:28:20;6.17;;;2.43;;
71490;SDS011;59307;50.060;9.150;2023-04-25T14:30:45;7.70;;;2.67;;
71490;SDS011;59307;50.060;9.150;2023-04-25T14:33:10;5.60;;;2.53;;
71490;SDS011;59307;50.060;9.150;2023-04-25T14:35:36;12.03;;;2.80;;
71490;SDS011;59307;50.060;9.150;2023-04-25T14:38:01;8.37;;;2.77;;
71490;SDS011;59307;50.060;9.150;2023-04-25T14:40:26;9.43;;;3.17;;
71490;SDS011;59307;50.060;9.150;2023-04-25T14:42:51;7.83;;;2.70;;